METAR Data
IDs: Format: Raw Decoded Include TAF

Data at: 0721 UTC 07 Dec 2022

KEUG 070654Z 21004KT 1 1/2SM BR OVC002 03/02 A3022 RMK AO2 SFC VIS 4 SLP236 T00280022
KEUG 070554Z 17003KT 1 1/2SM BR OVC002 03/02 A3022 RMK AO2 SFC VIS 3 SLP236 T00330022 10044 20033 53010
KEUG 070454Z 19005KT 1 1/4SM BR OVC002 03/03 A3021 RMK AO2 SFC VIS 2 1/2 SLP232 T00330028
KEUG 070354Z 20005KT 5SM BR OVC003 03/03 A3020 RMK AO2 SLP229 T00330028
KEUG 070254Z 16004KT 7SM OVC004 04/03 A3019 RMK AO2 SLP226 T00390028 51005
KEUG 070154Z 21004KT 7SM OVC003 04/03 A3019 RMK AO2 SLP225 T00390028
KEUG 070054Z 16003KT 6SM BR OVC004 04/03 A3018 RMK AO2 SLP222 T00440028
KEUG 062354Z 17004KT 6SM BR OVC004 04/03 A3017 RMK AO2 SLP221 T00440033 10044 20022 55001
KEUG 062309Z 21003KT 3SM BR OVC004 04/03 A3017 RMK AO2 SFC VIS 5 T00440033
KEUG 062254Z 22005KT 2SM BR OVC004 04/03 A3017 RMK AO2 TWR VIS 3 SLP219 T00440028
KEUG 062154Z 24003KT 2SM BR OVC004 04/03 A3018 RMK AO2 TWR VIS 3 SLP222 T00390028
KEUG 062054Z 21005KT 2SM BR OVC003 04/03 A3018 RMK AO2 SFC VIS 3 SLP222 T00390028 51001
KEUG 062050Z 23003KT 2SM BR OVC003 04/03 A3018 RMK AO2 SFC VIS 3
KEUG 061954Z 18004KT 1SM R16R/P6000FT BR VV002 03/03 A3018 RMK AO2 SLP222 T00330028
KEUG 061854Z 00000KT 1/4SM R16R/2600V4000FT FG VV002 02/02 A3019 RMK AO2 SLP225 T00220022
KEUG 061834Z 22004KT 1/4SM R16R/2800V3500FT FG VV002 02/02 A3019 RMK AO2 T00220022
KEUG 061754Z 00000KT 1/4SM R16R/1800V2200FT FG VV002 02/02 A3017 RMK AO2 SLP221 T00220017 10028 20022 52013
KEUG 061654Z 22005KT 1/4SM R16R/2800V3500FT FG VV002 02/02 A3016 RMK AO2 SLP217 T00220017
KEUG 061554Z 00000KT 1/4SM R16R/3500FT FG VV002 02/02 A3015 RMK AO2 SLP212 T00220017
KEUG 061538Z 24003KT 1/4SM R16R/3500VP6000FT FG VV002 02/02 A3015 RMK AO2 T00220017
KEUG 061454Z 00000KT 3/4SM R16R/P6000FT BR VV002 02/02 A3014 RMK AO2 SLP208 T00220017 53007
KEUG 061354Z 00000KT 1/2SM R16R/2600V2800FT FG VV002 02/02 A3013 RMK AO2 SLP204 T00220017
KEUG 061329Z AUTO 00000KT 3/4SM R16R/3000V4000FT BR VV002 02/02 A3012 RMK AO2 T00220017
KEUG 061306Z AUTO 00000KT 1SM R16R/5000VP6000FT BR OVC002 02/02 A3012 RMK AO2 T00220017
KEUG 061258Z AUTO 00000KT 1 3/4SM R16R/5000VP6000FT BR OVC002 02/02 A3012 RMK AO2 VIS 3/4 RNW 34 T00220017
KEUG 061254Z AUTO 00000KT 3SM R16R/5000VP6000FT BR OVC002 02/02 A3011 RMK AO2 VIS 1 RNW 34 SLP200 T00220017
KEUG 061246Z AUTO 00000KT 2SM R16R/6000VP6000FT BR OVC002 02/02 A3011 RMK AO2 T00220017
KEUG 061228Z AUTO 00000KT 1 1/4SM R16R/6000VP6000FT BR OVC002 02/02 A3011 RMK AO2 T00220017
KEUG 061222Z AUTO 00000KT 2SM BR OVC002 03/02 A3011 RMK AO2 T00280017
KEUG 061154Z AUTO 00000KT 4SM BR OVC002 03/02 A3012 RMK AO2 VIS 1/2 RNW 34 SLP201 T00280017 10028 20017 51002
KEUG 061054Z AUTO 00000KT 5SM BR OVC003 02/02 A3012 RMK AO2 SLP201 T00220017
KEUG 060954Z AUTO 00000KT 5SM BR OVC003 02/02 A3011 RMK AO2 SLP199 T00220017
KEUG 060942Z AUTO 00000KT 3SM BR OVC002 02/02 A3011 RMK AO2 VIS 1 3/4 RNW 34 T00220017
KEUG 060938Z AUTO 00000KT 1 1/2SM R16R/3500VP6000FT BR OVC002 02/02 A3011 RMK AO2 T00220017
KEUG 060906Z AUTO 00000KT 3/4SM R16R/4500V5500FT BR VV002 02/02 A3011 RMK AO2 T00220017
KEUG 060854Z AUTO 00000KT 1SM R16R/5500VP6000FT BR VV002 03/02 A3011 RMK AO2 SLP199 T00280017 52006
KEUG 060844Z AUTO 03003KT 1 1/4SM R16R/6000VP6000FT BR OVC002 03/02 A3011 RMK AO2 T00280017
KEUG 060802Z AUTO 00000KT 2SM BR OVC002 02/02 A3010 RMK AO2 T00220017
KEUG 060754Z AUTO 00000KT 1 1/4SM BR OVC002 02/02 A3010 RMK AO2 SLP197 T00220017 400280017
KEUG 060654Z 27003KT 1/2SM R16R/P6000FT BR OVC002 02/02 A3010 RMK AO2 SFC VIS 1 SLP195 T00220017
KEUG 060554Z 25003KT 1/2SM R16R/P6000FT BR OVC002 02/01 A3009 RMK AO2 SFC VIS 1 1/2 SLP192 T00220011 10022 20017 53011
KEUG 060454Z 00000KT 1/4SM R16R/P6000FT BR OVC002 02/01 A3008 RMK AO2 SFC VIS 1 SLP188 T00170011
KEUG 060354Z 22003KT 1/4SM R16R/4000VP6000FT FG OVC002 02/01 A3007 RMK AO2 SFC VIS 1/2 SLP184 T00170011
KEUG 060254Z 00000KT 1/4SM R16R/P6000FT FG OVC002 02/01 A3006 RMK AO2 SFC VIS 1/2 SLP181 T00170011 53010
KEUG 060154Z 00000KT 1/4SM R16R/5500VP6000FT FG VV002 02/02 A3005 RMK AO2 SFC VIS 1/2 SLP178 T00220017
KEUG 060054Z 00000KT 1/4SM R16R/3000V3500FT FG VV002 02/02 A3003 RMK AO2 SLP173 T00220017
KEUG 060017Z 00000KT 1/4SM R16R/2800V4000FT FG VV002 02/02 A3003 RMK AO2 SFC VIS 1/2 T00220017
KEUG 060010Z 00000KT 1/2SM R16R/3500V4000FT FG VV002 02/02 A3003 RMK AO2 TWR VIS 1 T00220017
KEUG 052354Z 00000KT 1SM R16R/2800VP6000FT BR OVC002 02/02 A3003 RMK AO2 SFC VIS 1 1/2 SLP171 T00220017 10028 20017 53006
KEUG 052254Z 32003KT 1SM R16R/P6000FT BR OVC002 02/01 A3002 RMK AO2 TWR VIS 1 1/2 SLP168 T00220011
KEUG 052154Z 03003KT 1 1/2SM BR OVC002 03/02 A3001 RMK AO2 SFC VIS 2 SLP166 T00280017
KEUG 052054Z 28003KT 1 1/2SM BR OVC002 02/02 A3001 RMK AO2 SFC VIS 2 SLP165 T00220017 58003
KEUG 051954Z 33003KT 1 1/2SM BR OVC003 02/02 A3002 RMK AO2 SFC VIS 2 SLP167 T00220017